Weather at Gigha Airfield

Public forecast

Using degrees Celsius for public forecast. Weather courtesy of forecast.io.

Closest aviation weather report (METAR) to Gigha Airfield

Closest report is Campbeltown Airport, 13.3 nm (24.6 km) S.

2024/05/21 15:20 (retrieved 1 hour ago)

EGEC 211520Z 30004KT 9999 FEW040 16/11 Q1010

Closest aviation forecast (TAF) to Gigha Airfield

Closest forecast is Glasgow Prestwick Airport, 40.7 nm (75.4 km) ESE.

2024/05/21 12:00 (retrieved 4 hours ago)

TAF EGPK 211101Z 2112/2212 04005KT 9999 FEW040 PROB30 TEMPO 2113/2120 7000 SHRA PROB30 TEMPO 2120/2206 7000 PROB30 TEMPO 2202/2212 BKN008 PROB40 TEMPO 2210/2212 6000 SHRA